createdAt,value
2023-02-22T00:01:35.525Z,97172.47
2023-02-22T00:04:04.544Z,97170.44
2023-02-22T00:06:31.244Z,97169.19
2023-02-22T00:08:58.598Z,97167.53
2023-02-22T00:11:26.018Z,97166.72
2023-02-22T00:13:52.648Z,97165.88
2023-02-22T00:16:22.076Z,97159.09
2023-02-22T00:18:50.364Z,97158.50
2023-02-22T00:21:18.384Z,97157.84
2023-02-22T00:23:47.652Z,97159.34
2023-02-22T00:26:18.544Z,97158.28
2023-02-22T00:28:47.213Z,97153.34
2023-02-22T00:31:15.051Z,97147.41
2023-02-22T00:33:42.691Z,97146.56
2023-02-22T00:36:11.275Z,97150.28
2023-02-22T00:38:38.294Z,97150.69
2023-02-22T00:41:05.753Z,97150.47
2023-02-22T00:43:32.189Z,97142.88
2023-02-22T00:45:58.951Z,97145.53
2023-02-22T00:48:25.725Z,97143.28
2023-02-22T00:50:55.192Z,97139.56
2023-02-22T00:53:24.524Z,97134.84
2023-02-22T00:55:52.105Z,97132.19
2023-02-22T00:58:18.697Z,97136.28
2023-02-22T01:00:46.104Z,97138.13
2023-02-22T01:03:17.366Z,97138.75
2023-02-22T01:05:44.528Z,97134.84
2023-02-22T01:08:13.872Z,97122.47
2023-02-22T01:10:40.812Z,97121.47
2023-02-22T01:13:09.575Z,97127.44
2023-02-22T01:15:38.282Z,97121.91
2023-02-22T01:18:05.397Z,97117.19
2023-02-22T01:20:32.707Z,97114.91
2023-02-22T01:23:03.363Z,97119.03
2023-02-22T01:25:31.819Z,97108.31
2023-02-22T01:28:00.394Z,97100.31
2023-02-22T01:30:34.548Z,97096.59
2023-02-22T01:33:02.600Z,97098.66
2023-02-22T01:35:32.359Z,97093.75
2023-02-22T01:37:59.394Z,97093.53
2023-02-22T01:40:29.774Z,97092.50
2023-02-22T01:42:59.758Z,97096.41
2023-02-22T01:45:35.219Z,97086.94
2023-02-22T01:48:12.823Z,97082.00
2023-02-22T01:50:43.316Z,97084.44
2023-02-22T01:53:15.584Z,97079.69
2023-02-22T01:55:42.417Z,97074.34
2023-02-22T01:58:09.722Z,97065.53
2023-02-22T02:00:36.552Z,97060.78
2023-02-22T02:03:10.853Z,97066.75
2023-02-22T02:05:39.019Z,97058.72
2023-02-22T02:08:26.574Z,97062.41
2023-02-22T02:10:55.558Z,97053.94
2023-02-22T02:13:22.417Z,97051.47
2023-02-22T02:15:49.776Z,97052.34
2023-02-22T02:18:16.414Z,97044.13
2023-02-22T02:20:56.666Z,97047.44
2023-02-22T02:23:50.309Z,97042.69
2023-02-22T02:26:36.614Z,97034.19
2023-02-22T02:29:31.171Z,97032.50
2023-02-22T02:32:06.943Z,97028.19
2023-02-22T02:34:38.401Z,97032.09
2023-02-22T02:37:15.059Z,97024.69
2023-02-22T02:39:41.871Z,97026.31
2023-02-22T02:42:12.940Z,97030.59
2023-02-22T02:44:54.494Z,97027.13
2023-02-22T02:47:27.109Z,97023.03
2023-02-22T02:50:15.295Z,97019.66
2023-02-22T02:52:44.390Z,97009.78
2023-02-22T02:55:12.008Z,97013.72
2023-02-22T02:57:41.129Z,97008.19
2023-02-22T03:00:24.453Z,97015.16
2023-02-22T03:02:53.634Z,97014.38
2023-02-22T03:06:02.061Z,97007.09
2023-02-22T03:08:31.626Z,96999.69
2023-02-22T03:11:14.952Z,96995.78
2023-02-22T03:14:03.306Z,97000.41
2023-02-22T03:16:38.077Z,96997.75
2023-02-22T03:19:26.094Z,96997.53
2023-02-22T03:21:58.355Z,96995.66
2023-02-22T03:24:53.369Z,96995.22
2023-02-22T03:27:31.560Z,96988.06
2023-02-22T03:30:05.099Z,96990.66
2023-02-22T03:32:37.433Z,96989.72
2023-02-22T03:35:12.938Z,96980.22
2023-02-22T03:37:44.455Z,96981.38
2023-02-22T03:40:16.623Z,96978.13
2023-02-22T03:42:52.812Z,96967.81
2023-02-22T03:45:24.370Z,96981.81
2023-02-22T03:48:00.842Z,96979.44
2023-02-22T03:50:35.600Z,96972.59
2023-02-22T03:53:04.164Z,96967.25
2023-02-22T03:55:33.537Z,96974.50
2023-02-22T03:58:04.784Z,96974.91
2023-02-22T04:00:33.926Z,96974.44
2023-02-22T04:03:00.991Z,96971.34
2023-02-22T04:05:27.441Z,96971.75
2023-02-22T04:07:55.911Z,96967.94
2023-02-22T04:10:23.688Z,96969.94
2023-02-22T04:12:51.039Z,96968.47
2023-02-22T04:15:21.522Z,96964.22
2023-02-22T04:17:49.778Z,96969.97
2023-02-22T04:20:19.880Z,96965.66
2023-02-22T04:22:59.169Z,96966.44
2023-02-22T04:25:26.127Z,96967.00
2023-02-22T04:27:53.475Z,96969.69
2023-02-22T04:30:30.970Z,96967.38
2023-02-22T04:32:57.777Z,96963.94
2023-02-22T04:35:24.597Z,96965.25
2023-02-22T04:37:52.126Z,96962.84
2023-02-22T04:40:18.890Z,96970.50
2023-02-22T04:42:46.903Z,96967.72
2023-02-22T04:45:13.684Z,96971.91
2023-02-22T04:47:40.254Z,96976.69
2023-02-22T04:50:09.122Z,96972.22
2023-02-22T04:52:35.601Z,96976.38
2023-02-22T04:55:02.179Z,96966.34
2023-02-22T04:57:29.008Z,96965.56
2023-02-22T04:59:55.935Z,96969.16
2023-02-22T05:02:23.585Z,96970.13
2023-02-22T05:04:50.640Z,96958.72
2023-02-22T05:07:17.698Z,96968.44
2023-02-22T05:09:44.142Z,96960.44
2023-02-22T05:12:10.689Z,96967.09
2023-02-22T05:14:37.112Z,96955.66
2023-02-22T05:17:04.507Z,96960.03
2023-02-22T05:19:30.992Z,96961.69
2023-02-22T05:21:57.704Z,96953.47
2023-02-22T05:24:24.390Z,96957.81
2023-02-22T05:26:51.379Z,96956.81
2023-02-22T05:29:17.889Z,96953.91
2023-02-22T05:31:44.421Z,96949.34
2023-02-22T05:34:10.880Z,96953.69
2023-02-22T05:36:37.348Z,96951.81
2023-02-22T05:39:05.391Z,96952.06
2023-02-22T05:41:31.959Z,96951.84
2023-02-22T05:43:58.390Z,96950.41
2023-02-22T05:46:25.176Z,96952.63
2023-02-22T05:48:51.722Z,96951.31
2023-02-22T05:51:19.554Z,96951.94
2023-02-22T05:53:46.390Z,96949.63
2023-02-22T05:56:12.859Z,96949.81
2023-02-22T05:58:39.314Z,96949.47
2023-02-22T06:01:05.768Z,96942.06
2023-02-22T06:03:32.283Z,96943.34
2023-02-22T06:05:58.895Z,96950.97
2023-02-22T06:08:25.347Z,96948.66
2023-02-22T06:10:51.906Z,96950.06
2023-02-22T06:13:18.305Z,96945.38
2023-02-22T06:15:44.858Z,96954.81
2023-02-22T06:18:11.271Z,96951.34
2023-02-22T06:20:37.830Z,96956.72
2023-02-22T06:23:04.300Z,96951.00
2023-02-22T06:25:31.516Z,96958.81
2023-02-22T06:27:59.518Z,96957.66
2023-02-22T06:30:27.261Z,96958.53
2023-02-22T06:32:54.020Z,96964.53
2023-02-22T06:35:20.889Z,96966.97
2023-02-22T06:37:47.375Z,96969.44
2023-02-22T06:40:15.202Z,96970.44
2023-02-22T06:42:41.923Z,96971.47
2023-02-22T06:45:09.132Z,96974.78
2023-02-22T06:47:40.567Z,96978.88
2023-02-22T06:50:08.957Z,96979.69
2023-02-22T06:52:35.429Z,96981.97
2023-02-22T06:55:01.932Z,96983.81
2023-02-22T06:57:28.393Z,96984.22
2023-02-22T06:59:54.799Z,96984.81
2023-02-22T07:02:21.230Z,96986.50
2023-02-22T07:04:47.680Z,96985.66
2023-02-22T07:07:14.115Z,96989.34
2023-02-22T07:09:40.590Z,96991.59
2023-02-22T07:12:07.799Z,96988.31
2023-02-22T07:14:34.229Z,96998.56
2023-02-22T07:17:00.637Z,96998.50
2023-02-22T07:19:27.041Z,97001.84
2023-02-22T07:21:59.081Z,97010.22
2023-02-22T07:24:28.270Z,97010.38
2023-02-22T07:26:54.759Z,97011.53
2023-02-22T07:29:22.343Z,97015.97
2023-02-22T07:31:49.176Z,97008.25
2023-02-22T07:34:15.657Z,97016.34
2023-02-22T07:36:42.102Z,97013.63
2023-02-22T07:39:08.751Z,97016.91
2023-02-22T07:41:35.449Z,97015.81
2023-02-22T07:44:01.942Z,97003.16
2023-02-22T07:46:28.370Z,97011.06
2023-02-22T07:48:54.801Z,97006.19
2023-02-22T07:51:21.248Z,97005.63
2023-02-22T07:53:48.304Z,97002.16
2023-02-22T07:56:14.757Z,96999.38
2023-02-22T07:58:41.197Z,97007.78
2023-02-22T08:01:07.719Z,97005.78
2023-02-22T08:03:36.422Z,97003.25
2023-02-22T08:06:05.668Z,97000.44
2023-02-22T08:08:32.219Z,97002.25
2023-02-22T08:10:58.700Z,97002.00
2023-02-22T08:13:25.180Z,97005.41
2023-02-22T08:15:53.702Z,97002.16
2023-02-22T08:18:21.289Z,96994.50
2023-02-22T08:20:49.979Z,96998.72
2023-02-22T08:23:17.848Z,96999.72
2023-02-22T08:25:44.442Z,97000.44
2023-02-22T08:28:13.472Z,96993.66
2023-02-22T08:30:40.848Z,97004.28
2023-02-22T08:33:07.452Z,97000.38
2023-02-22T08:35:34.427Z,97004.78
2023-02-22T08:38:04.236Z,97005.91
2023-02-22T08:40:33.624Z,96995.41
2023-02-22T08:43:01.654Z,97001.31
2023-02-22T08:45:28.683Z,97002.41
2023-02-22T08:47:55.341Z,97002.59
2023-02-22T08:50:30.702Z,96999.28
2023-02-22T08:52:59.301Z,96998.94
2023-02-22T08:55:29.122Z,96997.00
2023-02-22T08:57:55.627Z,96986.59
2023-02-22T09:00:25.957Z,96985.38
2023-02-22T09:02:52.862Z,96995.91
2023-02-22T09:05:19.722Z,96986.34
2023-02-22T09:07:46.239Z,96994.03
2023-02-22T09:10:24.446Z,96990.16
2023-02-22T09:12:52.166Z,96984.09
2023-02-22T09:15:19.092Z,96978.63
2023-02-22T09:17:45.574Z,96981.03
2023-02-22T09:20:12.415Z,96980.06
2023-02-22T09:22:39.206Z,96981.19
2023-02-22T09:25:16.187Z,96980.47
2023-02-22T09:27:44.047Z,96984.44
2023-02-22T09:30:49.260Z,96973.59
2023-02-22T09:33:18.236Z,96982.91
2023-02-22T09:35:47.099Z,96983.84
2023-02-22T09:38:20.199Z,96981.81
2023-02-22T09:40:54.228Z,96983.84
2023-02-22T09:43:45.274Z,96973.06
2023-02-22T09:46:30.697Z,96972.28
2023-02-22T09:49:05.959Z,96969.41
2023-02-22T09:51:35.709Z,96970.03
2023-02-22T09:54:04.687Z,96961.47
2023-02-22T09:56:33.865Z,96967.19
2023-02-22T09:59:04.066Z,96965.34
2023-02-22T10:01:40.635Z,96967.00
2023-02-22T10:04:24.440Z,96970.06
2023-02-22T10:07:11.507Z,96966.84
2023-02-22T10:09:44.507Z,96970.97
2023-02-22T10:12:19.625Z,96965.03
2023-02-22T10:14:53.437Z,96967.72
2023-02-22T10:17:29.550Z,96965.31
2023-02-22T10:20:22.101Z,96964.50
2023-02-22T10:23:09.735Z,96959.63
2023-02-22T10:25:38.795Z,96961.53
2023-02-22T10:28:19.625Z,96953.97
2023-02-22T10:30:56.462Z,96960.19
2023-02-22T10:33:38.062Z,96957.78
2023-02-22T10:36:04.654Z,96950.44
2023-02-22T10:38:33.659Z,96957.78
2023-02-22T10:41:20.960Z,96949.09
2023-02-22T10:43:47.503Z,96954.25
2023-02-22T10:46:20.459Z,96953.47
2023-02-22T10:48:51.330Z,96952.88
2023-02-22T10:51:17.881Z,96941.25
2023-02-22T10:53:53.516Z,96948.88
2023-02-22T10:56:23.085Z,96945.03
2023-02-22T10:58:54.703Z,96940.16
2023-02-22T11:01:23.598Z,96943.44
2023-02-22T11:04:12.186Z,96939.88
2023-02-22T11:06:40.681Z,96942.56
2023-02-22T11:09:13.782Z,96938.50
2023-02-22T11:11:45.837Z,96935.16
2023-02-22T11:14:24.412Z,96938.66
2023-02-22T11:16:53.695Z,96930.78
2023-02-22T11:19:31.910Z,96937.88
2023-02-22T11:22:11.241Z,96933.00
2023-02-22T11:27:31.609Z,96926.25
2023-02-22T11:30:08.228Z,96920.50
2023-02-22T11:32:36.410Z,96914.25
2023-02-22T11:35:29.686Z,96918.00
2023-02-22T11:38:25.306Z,96917.50
2023-02-22T11:41:30.264Z,96909.63
2023-02-22T11:44:14.881Z,96912.91
2023-02-22T11:46:42.829Z,96899.59
2023-02-22T11:49:14.947Z,96902.03
2023-02-22T11:52:03.364Z,96899.66
2023-02-22T11:54:44.770Z,96893.41
2023-02-22T11:57:36.141Z,96896.41
2023-02-22T12:00:27.695Z,96894.28
2023-02-22T12:03:21.615Z,96895.66
2023-02-22T12:06:14.324Z,96888.84
2023-02-22T12:09:19.129Z,96892.06
2023-02-22T12:11:51.848Z,96880.69
2023-02-22T12:14:32.056Z,96885.81
2023-02-22T12:17:13.749Z,96878.47
2023-02-22T12:19:43.201Z,96882.53
2023-02-22T12:22:16.784Z,96872.84
2023-02-22T12:24:51.615Z,96880.13
2023-02-22T12:27:30.471Z,96871.13
2023-02-22T12:30:06.833Z,96871.19
2023-02-22T12:32:47.453Z,96876.91
2023-02-22T12:35:23.446Z,96871.44
2023-02-22T12:38:04.733Z,96866.84
2023-02-22T12:40:53.783Z,96880.41
2023-02-22T12:43:27.359Z,96872.28
2023-02-22T12:46:18.798Z,96866.81
2023-02-22T12:49:07.046Z,96867.09
2023-02-22T12:51:51.532Z,96872.19
2023-02-22T12:54:41.877Z,96876.84
2023-02-22T12:57:19.449Z,96866.22
2023-02-22T12:59:53.504Z,96872.19
2023-02-22T13:02:25.863Z,96875.97
2023-02-22T13:04:52.686Z,96865.09
2023-02-22T13:07:46.062Z,96867.75
2023-02-22T13:10:54.206Z,96873.63
2023-02-22T13:13:31.498Z,96862.03
2023-02-22T13:16:09.532Z,96865.28
2023-02-22T13:19:08.374Z,96859.81
2023-02-22T13:21:49.690Z,96854.06
2023-02-22T13:24:31.927Z,96857.84
2023-02-22T13:27:14.559Z,96850.50
2023-02-22T13:29:51.986Z,96853.00
2023-02-22T13:32:44.092Z,96852.66
2023-02-22T13:35:39.268Z,96852.88
2023-02-22T13:38:50.674Z,96853.31
2023-02-22T13:41:35.866Z,96846.84
2023-02-22T13:44:14.340Z,96850.88
2023-02-22T13:47:08.874Z,96840.91
2023-02-22T13:49:54.811Z,96845.44
2023-02-22T13:52:25.361Z,96844.03
2023-02-22T13:54:58.815Z,96852.25
2023-02-22T13:57:29.043Z,96850.34
2023-02-22T14:00:26.143Z,96849.53
2023-02-22T14:03:03.429Z,96851.88
2023-02-22T14:05:39.276Z,96849.50
2023-02-22T14:08:06.958Z,96839.69
2023-02-22T14:11:25.850Z,96837.22
2023-02-22T14:13:53.618Z,96852.25
2023-02-22T14:16:22.099Z,96838.00
2023-02-22T14:18:59.372Z,96843.69
2023-02-22T14:21:25.834Z,96842.03
2023-02-22T14:23:54.260Z,96837.00
2023-02-22T14:26:28.453Z,96844.53
2023-02-22T14:29:22.981Z,96841.72
2023-02-22T14:31:52.386Z,96844.03
2023-02-22T14:34:21.320Z,96841.34
2023-02-22T14:37:05.082Z,96850.09
2023-02-22T14:39:38.325Z,96848.06
2023-02-22T14:42:14.293Z,96846.69
2023-02-22T14:45:00.437Z,96842.06
2023-02-22T14:47:39.849Z,96842.38
2023-02-22T14:50:27.168Z,96842.47
2023-02-22T14:53:30.822Z,96840.41
2023-02-22T14:56:06.942Z,96844.00
2023-02-22T14:58:51.995Z,96843.22
2023-02-22T15:01:27.261Z,96842.19
2023-02-22T15:04:07.561Z,96839.44
2023-02-22T15:06:35.276Z,96838.56
2023-02-22T15:09:14.269Z,96842.03
2023-02-22T15:11:40.785Z,96838.53
2023-02-22T15:14:25.771Z,96832.41
2023-02-22T15:16:58.976Z,96841.66
2023-02-22T15:19:29.003Z,96834.56
2023-02-22T15:21:57.872Z,96835.09
2023-02-22T15:24:30.498Z,96838.88
2023-02-22T15:27:06.074Z,96841.06
2023-02-22T15:29:44.420Z,96841.41
2023-02-22T15:32:33.905Z,96841.28
2023-02-22T15:35:19.496Z,96845.91
2023-02-22T15:37:47.256Z,96846.44
2023-02-22T15:40:17.235Z,96842.19
2023-02-22T15:42:58.294Z,96839.16
2023-02-22T15:45:26.250Z,96843.41
2023-02-22T15:47:54.837Z,96844.03
2023-02-22T15:50:30.341Z,96839.69
2023-02-22T15:52:58.172Z,96842.41
2023-02-22T15:55:43.673Z,96843.47
2023-02-22T15:58:19.270Z,96844.63
2023-02-22T16:01:17.668Z,96835.91
2023-02-22T16:03:54.104Z,96844.91
2023-02-22T16:06:40.075Z,96845.19
2023-02-22T16:09:13.040Z,96844.38
2023-02-22T16:11:45.769Z,96851.44
2023-02-22T16:14:52.371Z,96847.09
2023-02-22T16:17:35.515Z,96848.22
2023-02-22T16:20:21.931Z,96856.91
2023-02-22T16:22:49.672Z,96858.78
2023-02-22T16:25:19.030Z,96866.59
2023-02-22T16:27:57.918Z,96864.06
2023-02-22T16:30:28.705Z,96859.41
2023-02-22T16:32:56.974Z,96865.75
2023-02-22T16:35:30.818Z,96865.66
2023-02-22T16:38:00.385Z,96862.56
2023-02-22T16:40:34.837Z,96858.16
2023-02-22T16:43:12.104Z,96861.44
2023-02-22T16:45:40.671Z,96867.94
2023-02-22T16:48:18.636Z,96862.94
2023-02-22T16:50:45.906Z,96868.53
2023-02-22T16:53:12.436Z,96864.69
2023-02-22T16:55:44.582Z,96865.44
2023-02-22T16:58:14.400Z,96861.69
2023-02-22T17:00:42.319Z,96860.59
2023-02-22T17:03:15.998Z,96868.50
2023-02-22T17:05:43.290Z,96862.00
2023-02-22T17:08:10.098Z,96868.81
2023-02-22T17:10:36.994Z,96865.81
2023-02-22T17:13:21.628Z,96868.25
2023-02-22T17:15:49.825Z,96867.34
2023-02-22T17:18:22.479Z,96872.72
2023-02-22T17:20:50.641Z,96876.44
2023-02-22T17:23:17.192Z,96887.59
2023-02-22T17:25:53.422Z,96883.69
2023-02-22T17:28:21.136Z,96885.22
2023-02-22T17:30:48.939Z,96885.34
2023-02-22T17:33:21.557Z,96890.31
2023-02-22T17:35:48.349Z,96896.34
2023-02-22T17:38:18.368Z,96897.88
2023-02-22T17:40:51.870Z,96899.41
2023-02-22T17:43:19.375Z,96906.56
2023-02-22T17:45:46.678Z,96903.41
2023-02-22T17:48:15.228Z,96905.88
2023-02-22T17:50:43.977Z,96909.84
2023-02-22T17:53:11.157Z,96910.31
2023-02-22T17:55:42.041Z,96911.38
2023-02-22T17:58:14.483Z,96909.16
2023-02-22T18:00:48.401Z,96908.31
2023-02-22T18:03:21.129Z,96906.25
2023-02-22T18:05:50.201Z,96910.22
2023-02-22T18:08:16.646Z,96914.06
2023-02-22T18:10:44.276Z,96911.16
2023-02-22T18:13:17.716Z,96906.78
2023-02-22T18:15:45.345Z,96915.97
2023-02-22T18:18:12.342Z,96909.69
2023-02-22T18:20:43.803Z,96909.72
2023-02-22T18:23:16.807Z,96916.88
2023-02-22T18:26:07.576Z,96903.75
2023-02-22T18:28:36.262Z,96908.94
2023-02-22T18:31:07.579Z,96908.94
2023-02-22T18:33:34.040Z,96908.44
2023-02-22T18:36:00.439Z,96912.53
2023-02-22T18:38:26.835Z,96908.56
2023-02-22T18:41:04.709Z,96906.25
2023-02-22T18:43:34.108Z,96907.03
2023-02-22T18:46:14.167Z,96916.03
2023-02-22T18:48:40.746Z,96904.56
2023-02-22T18:51:10.202Z,96904.69
2023-02-22T18:53:38.302Z,96908.06
2023-02-22T18:56:10.445Z,96907.25
2023-02-22T18:58:38.580Z,96913.91
2023-02-22T19:01:06.383Z,96910.75
2023-02-22T19:03:37.997Z,96912.72
2023-02-22T19:06:08.659Z,96911.34
2023-02-22T19:08:39.417Z,96912.03
2023-02-22T19:11:08.621Z,96907.13
2023-02-22T19:13:35.870Z,96910.88
2023-02-22T19:16:03.587Z,96907.47
2023-02-22T19:18:30.826Z,96908.31
2023-02-22T19:20:58.332Z,96912.78
2023-02-22T19:23:25.432Z,96912.31
2023-02-22T19:25:52.306Z,96915.09
2023-02-22T19:28:19.054Z,96915.19
2023-02-22T19:30:45.760Z,96913.09
2023-02-22T19:33:12.193Z,96915.19
2023-02-22T19:35:38.661Z,96913.00
2023-02-22T19:38:05.049Z,96916.28
2023-02-22T19:40:31.498Z,96915.56
2023-02-22T19:42:57.935Z,96906.09
2023-02-22T19:45:24.794Z,96908.78
2023-02-22T19:47:55.373Z,96912.78
2023-02-22T19:50:22.480Z,96909.47
2023-02-22T19:52:48.972Z,96907.72
2023-02-22T19:55:15.762Z,96913.84
2023-02-22T19:57:46.351Z,96912.06
2023-02-22T20:00:14.224Z,96909.97
2023-02-22T20:02:41.592Z,96908.69
2023-02-22T20:05:13.172Z,96905.50
2023-02-22T20:07:39.570Z,96903.19
2023-02-22T20:10:07.642Z,96913.34
2023-02-22T20:12:34.276Z,96913.22
2023-02-22T20:15:01.135Z,96911.28
2023-02-22T20:17:27.684Z,96922.03
2023-02-22T20:19:54.253Z,96924.34
2023-02-22T20:22:21.278Z,96920.78
2023-02-22T20:24:48.890Z,96922.44
2023-02-22T20:27:15.446Z,96916.72
2023-02-22T20:29:41.923Z,96919.63
2023-02-22T20:32:12.346Z,96919.25
2023-02-22T20:34:38.892Z,96927.06
2023-02-22T20:37:05.317Z,96926.22
2023-02-22T20:39:31.818Z,96923.97
2023-02-22T20:42:00.429Z,96923.00
2023-02-22T20:44:27.329Z,96920.09
2023-02-22T20:46:53.762Z,96927.09
2023-02-22T20:49:21.245Z,96929.19
2023-02-22T20:51:48.543Z,96930.09
2023-02-22T20:54:16.113Z,96930.34
2023-02-22T20:56:44.650Z,96929.41
2023-02-22T20:59:13.321Z,96929.19
2023-02-22T21:01:40.153Z,96930.38
2023-02-22T21:04:10.018Z,96930.00
2023-02-22T21:06:38.907Z,96921.94
2023-02-22T21:09:10.195Z,96923.31
2023-02-22T21:11:36.775Z,96929.16
2023-02-22T21:14:03.695Z,96921.00
2023-02-22T21:16:33.778Z,96925.69
2023-02-22T21:19:02.745Z,96923.22
2023-02-22T21:21:29.857Z,96924.88
2023-02-22T21:24:01.499Z,96929.00
2023-02-22T21:26:30.754Z,96920.38
2023-02-22T21:29:05.649Z,96927.00
2023-02-22T21:31:33.847Z,96928.03
2023-02-22T21:34:01.375Z,96920.91
2023-02-22T21:36:28.787Z,96929.41
2023-02-22T21:39:02.986Z,96935.63
2023-02-22T21:41:30.895Z,96928.38
2023-02-22T21:43:59.377Z,96928.81
2023-02-22T21:46:29.071Z,96927.19
2023-02-22T21:48:58.277Z,96931.28
2023-02-22T21:51:33.127Z,96927.31
2023-02-22T21:54:02.368Z,96933.50
2023-02-22T21:56:31.418Z,96929.19
2023-02-22T21:59:05.618Z,96922.78
2023-02-22T22:01:35.082Z,96925.09
2023-02-22T22:04:03.534Z,96919.25
2023-02-22T22:06:32.798Z,96923.81
2023-02-22T22:09:05.118Z,96927.47
2023-02-22T22:11:31.775Z,96922.09
2023-02-22T22:13:59.873Z,96920.22
2023-02-22T22:16:29.680Z,96921.41
2023-02-22T22:18:56.997Z,96913.13
2023-02-22T22:21:24.911Z,96910.66
2023-02-22T22:23:55.709Z,96919.31
2023-02-22T22:26:24.463Z,96914.66
2023-02-22T22:28:53.977Z,96906.97
2023-02-22T22:31:23.479Z,96915.97
2023-02-22T22:33:50.272Z,96909.78
2023-02-22T22:36:18.749Z,96906.66
2023-02-22T22:38:47.000Z,96910.97
2023-02-22T22:41:16.255Z,96907.81
2023-02-22T22:43:46.211Z,96908.38
2023-02-22T22:46:17.594Z,96914.38
2023-02-22T22:48:46.813Z,96904.91
2023-02-22T22:51:20.222Z,96914.47
2023-02-22T22:53:49.198Z,96912.56
2023-02-22T22:56:21.621Z,96909.66
2023-02-22T22:58:53.581Z,96913.97
2023-02-22T23:01:32.517Z,96914.69
2023-02-22T23:04:02.844Z,96917.16
2023-02-22T23:06:32.691Z,96912.38
2023-02-22T23:09:34.743Z,96914.13
2023-02-22T23:12:10.104Z,96912.25
2023-02-22T23:14:39.411Z,96907.94
2023-02-22T23:17:15.080Z,96914.59
2023-02-22T23:19:44.809Z,96914.13
2023-02-22T23:22:14.057Z,96911.44
2023-02-22T23:24:40.857Z,96907.59
2023-02-22T23:27:07.657Z,96914.25
2023-02-22T23:29:38.363Z,96914.84
2023-02-22T23:32:08.699Z,96911.44
2023-02-22T23:34:36.248Z,96910.16
2023-02-22T23:37:03.488Z,96912.03
2023-02-22T23:39:29.991Z,96913.22
2023-02-22T23:41:59.302Z,96911.84
2023-02-22T23:44:27.175Z,96912.78
2023-02-22T23:46:55.555Z,96912.19
2023-02-22T23:49:23.627Z,96921.53
2023-02-22T23:51:50.130Z,96917.69
2023-02-22T23:54:19.765Z,96920.03
2023-02-22T23:57:02.246Z,96917.91
2023-02-22T23:59:30.764Z,96918.97
